createdAt,value
2023-03-19T00:02:16.714Z,8.20
2023-03-19T00:04:45.641Z,9.73
2023-03-19T00:07:14.021Z,7.78
2023-03-19T00:09:40.917Z,10.30
2023-03-19T00:12:08.568Z,7.55
2023-03-19T00:14:35.012Z,5.50
2023-03-19T00:17:01.622Z,6.95
2023-03-19T00:19:28.657Z,9.07
2023-03-19T00:21:55.647Z,8.45
2023-03-19T00:24:22.637Z,8.45
2023-03-19T00:26:49.441Z,8.02
2023-03-19T00:29:16.266Z,8.77
2023-03-19T00:31:42.823Z,7.60
2023-03-19T00:34:09.826Z,8.77
2023-03-19T00:36:36.805Z,10.00
2023-03-19T00:39:04.057Z,10.05
2023-03-19T00:41:31.083Z,12.37
2023-03-19T00:43:58.109Z,7.47
2023-03-19T00:46:25.784Z,8.85
2023-03-19T00:48:54.972Z,8.65
2023-03-19T00:51:23.377Z,9.68
2023-03-19T00:53:50.792Z,11.10
2023-03-19T00:56:19.372Z,9.45
2023-03-19T00:58:46.602Z,8.68
2023-03-19T01:01:16.374Z,9.68
2023-03-19T01:03:44.836Z,8.80
2023-03-19T01:06:11.747Z,8.63
2023-03-19T01:08:38.711Z,11.30
2023-03-19T01:11:09.892Z,10.95
2023-03-19T01:13:36.540Z,9.88
2023-03-19T01:16:03.328Z,8.88
2023-03-19T01:18:30.804Z,8.10
2023-03-19T01:20:58.056Z,8.52
2023-03-19T01:23:25.165Z,7.82
2023-03-19T01:25:51.901Z,6.65
2023-03-19T01:28:19.143Z,8.75
2023-03-19T01:30:45.909Z,6.47
2023-03-19T01:33:13.287Z,7.10
2023-03-19T01:35:40.698Z,7.20
2023-03-19T01:38:07.798Z,6.93
2023-03-19T01:40:35.300Z,7.35
2023-03-19T01:43:21.480Z,8.82
2023-03-19T01:45:52.477Z,5.50
2023-03-19T01:48:28.584Z,7.13
2023-03-19T01:50:57.535Z,8.38
2023-03-19T01:53:29.037Z,7.68
2023-03-19T01:56:02.036Z,9.47
2023-03-19T01:58:29.271Z,7.15
2023-03-19T02:00:58.109Z,8.43
2023-03-19T02:03:26.204Z,8.05
2023-03-19T02:05:55.536Z,6.70
2023-03-19T02:08:24.565Z,11.65
2023-03-19T02:10:55.337Z,6.37
2023-03-19T02:13:22.593Z,8.48
2023-03-19T02:15:50.485Z,6.72
2023-03-19T02:18:17.675Z,8.55
2023-03-19T02:20:58.423Z,5.22
2023-03-19T02:23:52.524Z,7.70
2023-03-19T02:26:22.994Z,8.35
2023-03-19T02:28:52.383Z,5.53
2023-03-19T02:31:20.915Z,5.18
2023-03-19T02:34:21.436Z,6.03
2023-03-19T02:36:55.101Z,6.90
2023-03-19T02:39:30.559Z,6.87
2023-03-19T02:41:58.857Z,7.53
2023-03-19T02:44:25.950Z,7.53
2023-03-19T02:46:52.672Z,5.72
2023-03-19T02:49:19.767Z,8.40
2023-03-19T02:51:46.270Z,8.75
2023-03-19T02:54:12.758Z,8.68
2023-03-19T02:56:39.526Z,7.62
2023-03-19T02:59:06.666Z,5.85
2023-03-19T03:01:33.190Z,6.22
2023-03-19T03:04:00.048Z,6.87
2023-03-19T03:06:26.628Z,9.65
2023-03-19T03:08:53.820Z,6.97
2023-03-19T03:11:20.700Z,5.30
2023-03-19T03:13:47.235Z,6.12
2023-03-19T03:16:13.820Z,6.80
2023-03-19T03:18:41.867Z,7.95
2023-03-19T03:21:09.513Z,7.00
2023-03-19T03:23:36.101Z,7.78
2023-03-19T03:26:03.540Z,10.07
2023-03-19T03:28:30.045Z,10.98
2023-03-19T03:30:59.450Z,7.37
2023-03-19T03:33:26.569Z,8.63
2023-03-19T03:35:53.114Z,8.73
2023-03-19T03:38:20.061Z,8.05
2023-03-19T03:40:51.882Z,7.60
2023-03-19T03:43:20.533Z,7.22
2023-03-19T03:45:48.175Z,8.38
2023-03-19T03:48:15.966Z,8.07
2023-03-19T03:50:42.650Z,11.00
2023-03-19T03:53:11.442Z,12.93
2023-03-19T03:55:38.923Z,9.55
2023-03-19T03:58:05.855Z,7.78
2023-03-19T04:00:33.264Z,7.85
2023-03-19T04:03:00.509Z,7.45
2023-03-19T04:05:27.101Z,9.95
2023-03-19T04:07:53.692Z,9.65
2023-03-19T04:10:21.077Z,10.30
2023-03-19T04:12:47.608Z,10.20
2023-03-19T04:15:14.898Z,7.90
2023-03-19T04:17:42.480Z,8.40
2023-03-19T04:20:10.467Z,7.90
2023-03-19T04:22:37.145Z,7.15
2023-03-19T04:25:05.233Z,10.23
2023-03-19T04:27:31.879Z,7.40
2023-03-19T04:29:58.837Z,6.28
2023-03-19T04:32:25.787Z,6.97
2023-03-19T04:34:52.586Z,9.07
2023-03-19T04:37:19.067Z,7.20
2023-03-19T04:39:46.845Z,6.72
2023-03-19T04:42:13.373Z,8.93
2023-03-19T04:44:40.151Z,9.35
2023-03-19T04:47:09.721Z,12.65
2023-03-19T04:49:38.440Z,9.15
2023-03-19T04:52:05.669Z,10.38
2023-03-19T04:54:33.421Z,8.30
2023-03-19T04:57:00.259Z,5.65
2023-03-19T04:59:28.417Z,4.62
2023-03-19T05:01:55.566Z,7.43
2023-03-19T05:04:23.338Z,7.37
2023-03-19T05:06:50.582Z,6.95
2023-03-19T05:09:17.496Z,5.20
2023-03-19T05:11:44.239Z,5.07
2023-03-19T05:14:11.260Z,4.43
2023-03-19T05:16:39.200Z,7.78
2023-03-19T05:19:07.688Z,5.18
2023-03-19T05:21:35.242Z,5.37
2023-03-19T05:24:02.023Z,5.57
2023-03-19T05:26:29.297Z,5.30
2023-03-19T05:28:58.000Z,5.85
2023-03-19T05:31:26.019Z,3.97
2023-03-19T05:33:53.345Z,3.35
2023-03-19T05:36:20.357Z,5.35
2023-03-19T05:38:48.143Z,5.82
2023-03-19T05:41:15.866Z,5.60
2023-03-19T05:43:42.732Z,4.55
2023-03-19T05:46:10.905Z,6.43
2023-03-19T05:48:37.543Z,5.45
2023-03-19T05:51:06.046Z,4.95
2023-03-19T05:53:33.353Z,4.93
2023-03-19T05:56:00.493Z,3.97
2023-03-19T05:58:28.026Z,5.35
2023-03-19T06:00:56.039Z,3.60
2023-03-19T06:03:23.146Z,4.25
2023-03-19T06:05:51.058Z,2.40
2023-03-19T06:08:18.480Z,5.47
2023-03-19T06:10:46.517Z,5.47
2023-03-19T06:13:13.630Z,4.45
2023-03-19T06:15:40.394Z,3.50
2023-03-19T06:18:07.965Z,4.32
2023-03-19T06:20:35.572Z,4.93
2023-03-19T06:23:02.718Z,4.40
2023-03-19T06:25:29.682Z,5.05
2023-03-19T06:27:56.271Z,4.90
2023-03-19T06:30:23.372Z,2.47
2023-03-19T06:32:50.311Z,5.57
2023-03-19T06:35:17.323Z,2.78
2023-03-19T06:37:44.238Z,4.82
2023-03-19T06:40:11.488Z,4.30
2023-03-19T06:42:38.967Z,4.93
2023-03-19T06:45:07.021Z,5.72
2023-03-19T06:47:33.722Z,5.35
2023-03-19T06:50:10.220Z,3.35
2023-03-19T06:52:42.304Z,5.82
2023-03-19T06:55:10.879Z,3.75
2023-03-19T06:57:39.089Z,3.45
2023-03-19T07:00:09.736Z,2.37
2023-03-19T07:02:36.358Z,2.85
2023-03-19T07:05:03.561Z,2.78
2023-03-19T07:07:31.012Z,5.82
2023-03-19T07:09:57.661Z,1.48
2023-03-19T07:12:27.200Z,12.02
2023-03-19T07:14:55.718Z,4.25
2023-03-19T07:17:23.807Z,5.53
2023-03-19T07:19:50.763Z,5.97
2023-03-19T07:22:17.864Z,4.50
2023-03-19T07:24:44.600Z,9.70
2023-03-19T07:27:11.383Z,5.78
2023-03-19T07:29:38.171Z,7.12
2023-03-19T07:32:05.022Z,8.30
2023-03-19T07:34:31.526Z,6.03
2023-03-19T07:36:58.200Z,6.37
2023-03-19T07:39:24.868Z,8.52
2023-03-19T07:41:51.477Z,9.82
2023-03-19T07:44:18.378Z,15.57
2023-03-19T07:46:45.028Z,9.68
2023-03-19T07:49:11.607Z,15.75
2023-03-19T07:51:38.465Z,7.35
2023-03-19T07:54:05.112Z,10.98
2023-03-19T07:56:31.878Z,8.98
2023-03-19T07:58:59.309Z,9.85
2023-03-19T08:01:26.253Z,6.90
2023-03-19T08:03:53.132Z,7.03
2023-03-19T08:06:20.055Z,7.35
2023-03-19T08:08:46.635Z,7.57
2023-03-19T08:11:13.471Z,5.87
2023-03-19T08:13:40.014Z,6.95
2023-03-19T08:16:08.045Z,6.00
2023-03-19T08:18:36.061Z,3.08
2023-03-19T08:21:03.253Z,7.30
2023-03-19T08:23:30.414Z,6.32
2023-03-19T08:25:57.221Z,5.93
2023-03-19T08:28:23.906Z,6.72
2023-03-19T08:30:50.651Z,7.50
2023-03-19T08:33:17.501Z,8.93
2023-03-19T08:35:44.246Z,6.25
2023-03-19T08:38:10.867Z,8.15
2023-03-19T08:40:37.563Z,4.60
2023-03-19T08:43:04.183Z,5.78
2023-03-19T08:45:30.765Z,6.07
2023-03-19T08:47:57.873Z,5.47
2023-03-19T08:50:24.898Z,10.15
2023-03-19T08:52:51.600Z,6.72
2023-03-19T08:55:18.287Z,8.93
2023-03-19T08:57:44.902Z,6.32
2023-03-19T09:00:11.993Z,5.65
2023-03-19T09:02:39.697Z,7.85
2023-03-19T09:05:06.718Z,5.62
2023-03-19T09:07:33.249Z,6.22
2023-03-19T09:09:59.939Z,3.60
2023-03-19T09:12:26.567Z,6.37
2023-03-19T09:14:53.176Z,7.03
2023-03-19T09:17:20.016Z,4.03
2023-03-19T09:19:46.600Z,2.45
2023-03-19T09:22:13.320Z,6.07
2023-03-19T09:24:40.750Z,4.37
2023-03-19T09:27:07.679Z,15.02
2023-03-19T09:29:34.349Z,4.12
2023-03-19T09:32:01.140Z,4.28
2023-03-19T09:34:27.964Z,6.87
2023-03-19T09:36:54.813Z,8.27
2023-03-19T09:39:23.716Z,6.90
2023-03-19T09:42:19.910Z,7.97
2023-03-19T09:44:46.786Z,5.75
2023-03-19T09:47:27.192Z,3.67
2023-03-19T09:49:58.660Z,6.28
2023-03-19T09:52:45.268Z,6.10
2023-03-19T09:55:35.426Z,5.78
2023-03-19T09:58:12.068Z,4.03
2023-03-19T10:00:39.019Z,5.62
2023-03-19T10:03:45.868Z,7.22
2023-03-19T10:06:34.890Z,6.32
2023-03-19T10:09:18.184Z,3.97
2023-03-19T10:12:24.371Z,4.85
2023-03-19T10:15:17.299Z,4.90
2023-03-19T10:18:08.987Z,5.12
2023-03-19T10:20:41.107Z,5.32
2023-03-19T10:23:28.478Z,5.30
2023-03-19T10:25:59.377Z,2.90
2023-03-19T10:28:28.447Z,6.68
2023-03-19T10:31:02.903Z,7.10
2023-03-19T10:33:57.891Z,6.57
2023-03-19T10:36:30.101Z,5.10
2023-03-19T10:38:56.749Z,7.07
2023-03-19T10:41:32.946Z,5.25
2023-03-19T10:44:03.179Z,4.75
2023-03-19T10:46:38.843Z,5.57
2023-03-19T10:49:12.686Z,5.82
2023-03-19T10:51:42.094Z,4.10
2023-03-19T10:54:19.727Z,5.03
2023-03-19T10:56:46.894Z,5.72
2023-03-19T10:59:36.336Z,4.93
2023-03-19T11:02:17.761Z,6.55
2023-03-19T11:04:45.881Z,5.18
2023-03-19T11:07:17.179Z,3.60
2023-03-19T11:09:47.663Z,5.97
2023-03-19T11:12:19.425Z,4.57
2023-03-19T11:14:49.643Z,5.25
2023-03-19T11:17:17.356Z,4.15
2023-03-19T11:19:51.943Z,5.60
2023-03-19T11:22:27.670Z,5.15
2023-03-19T11:24:56.954Z,5.97
2023-03-19T11:27:28.096Z,5.07
2023-03-19T11:29:54.694Z,7.30
2023-03-19T11:32:24.612Z,6.65
2023-03-19T11:34:59.083Z,5.25
2023-03-19T11:37:53.060Z,7.60
2023-03-19T11:40:45.022Z,6.28
2023-03-19T11:43:50.367Z,4.10
2023-03-19T11:46:40.146Z,6.68
2023-03-19T11:49:35.031Z,5.70
2023-03-19T11:52:34.814Z,5.47
2023-03-19T11:55:25.043Z,4.68
2023-03-19T11:58:31.484Z,3.62
2023-03-19T12:01:11.961Z,5.53
2023-03-19T12:04:10.358Z,5.10
2023-03-19T12:07:00.615Z,5.40
2023-03-19T12:09:55.339Z,3.08
2023-03-19T12:12:29.513Z,4.80
2023-03-19T12:15:36.255Z,6.72
2023-03-19T12:18:34.290Z,4.22
2023-03-19T12:21:13.939Z,2.50
2023-03-19T12:24:20.968Z,3.72
2023-03-19T12:27:00.001Z,6.65
2023-03-19T12:29:46.177Z,5.43
2023-03-19T12:32:34.668Z,6.85
2023-03-19T12:35:08.623Z,7.53
2023-03-19T12:37:59.341Z,8.15
2023-03-19T12:40:34.400Z,7.15
2023-03-19T12:43:11.329Z,7.43
2023-03-19T12:45:44.092Z,8.85
2023-03-19T12:50:43.718Z,8.88
2023-03-19T12:53:26.115Z,6.93
2023-03-19T12:55:59.829Z,8.10
2023-03-19T12:58:46.019Z,6.95
2023-03-19T13:01:20.188Z,8.50
2023-03-19T13:03:57.439Z,10.93
2023-03-19T13:06:31.738Z,5.90
2023-03-19T13:09:06.805Z,6.82
2023-03-19T13:11:48.590Z,7.05
2023-03-19T13:14:20.340Z,6.87
2023-03-19T13:16:58.806Z,7.50
2023-03-19T13:19:37.330Z,6.40
2023-03-19T13:22:11.059Z,6.10
2023-03-19T13:24:40.460Z,6.55
2023-03-19T13:27:13.659Z,6.32
2023-03-19T13:32:38.495Z,6.12
2023-03-19T13:35:19.988Z,8.02
2023-03-19T13:37:51.741Z,6.85
2023-03-19T13:40:37.326Z,6.00
2023-03-19T13:43:04.419Z,7.53
2023-03-19T13:45:35.281Z,5.28
2023-03-19T13:48:24.847Z,6.87
2023-03-19T13:51:00.061Z,6.00
2023-03-19T13:54:03.075Z,5.20
2023-03-19T13:56:33.333Z,5.65
2023-03-19T13:59:24.625Z,4.45
2023-03-19T14:01:51.490Z,6.03
2023-03-19T14:04:30.045Z,6.03
2023-03-19T14:07:18.436Z,5.95
2023-03-19T14:09:49.501Z,5.43
2023-03-19T14:12:24.570Z,4.60
2023-03-19T14:15:05.298Z,6.55
2023-03-19T14:17:35.794Z,6.25
2023-03-19T14:20:37.100Z,6.93
2023-03-19T14:23:11.101Z,5.72
2023-03-19T14:26:18.024Z,5.80
2023-03-19T14:28:44.540Z,5.87
2023-03-19T14:31:21.601Z,6.45
2023-03-19T14:34:04.198Z,5.03
2023-03-19T14:36:31.584Z,5.12
2023-03-19T14:39:02.676Z,6.20
2023-03-19T14:41:37.690Z,4.78
2023-03-19T14:44:25.327Z,5.25
2023-03-19T14:47:24.568Z,5.12
2023-03-19T14:50:11.098Z,5.85
2023-03-19T14:52:42.816Z,6.00
2023-03-19T14:55:15.438Z,5.20
2023-03-19T14:57:42.807Z,4.80
2023-03-19T15:00:16.810Z,7.53
2023-03-19T15:02:48.446Z,8.65
2023-03-19T15:05:23.557Z,4.30
2023-03-19T15:07:55.439Z,4.95
2023-03-19T15:10:28.084Z,7.57
2023-03-19T15:13:13.488Z,5.45
2023-03-19T15:16:08.098Z,6.28
2023-03-19T15:18:37.003Z,3.97
2023-03-19T15:21:05.612Z,6.22
2023-03-19T15:23:32.627Z,4.90
2023-03-19T15:26:01.564Z,6.78
2023-03-19T15:28:31.283Z,5.03
2023-03-19T15:31:22.255Z,7.50
2023-03-19T15:33:52.070Z,7.85
2023-03-19T15:36:29.384Z,8.15
2023-03-19T15:38:59.644Z,6.97
2023-03-19T15:41:30.544Z,11.77
2023-03-19T15:43:59.048Z,5.90
2023-03-19T15:46:32.661Z,4.25
2023-03-19T15:49:09.873Z,6.47
2023-03-19T15:51:36.673Z,5.43
2023-03-19T15:54:04.492Z,6.78
2023-03-19T15:56:31.747Z,4.65
2023-03-19T15:58:59.644Z,8.73
2023-03-19T16:01:27.359Z,9.00
2023-03-19T16:03:59.437Z,6.93
2023-03-19T16:06:31.107Z,8.43
2023-03-19T16:09:32.237Z,10.00
2023-03-19T16:12:00.388Z,12.23
2023-03-19T16:14:39.991Z,6.37
2023-03-19T16:17:34.332Z,8.23
2023-03-19T16:20:03.335Z,9.70
2023-03-19T16:22:32.396Z,11.02
2023-03-19T16:25:01.393Z,9.27
2023-03-19T16:27:34.323Z,11.52
2023-03-19T16:30:01.046Z,7.72
2023-03-19T16:32:31.575Z,9.40
2023-03-19T16:35:13.677Z,11.25
2023-03-19T16:37:43.761Z,8.10
2023-03-19T16:40:46.518Z,12.45
2023-03-19T16:43:16.512Z,10.60
2023-03-19T16:45:44.418Z,11.07
2023-03-19T16:48:11.178Z,6.57
2023-03-19T16:50:40.355Z,8.10
2023-03-19T16:53:20.773Z,8.27
2023-03-19T16:55:48.385Z,10.05
2023-03-19T16:58:17.435Z,9.52
2023-03-19T17:00:45.227Z,11.10
2023-03-19T17:03:15.032Z,11.52
2023-03-19T17:05:42.753Z,11.80
2023-03-19T17:08:09.380Z,14.60
2023-03-19T17:10:40.045Z,13.48
2023-03-19T17:13:07.093Z,20.25
2023-03-19T17:15:39.945Z,15.48
2023-03-19T17:18:15.906Z,12.30
2023-03-19T17:20:51.665Z,10.38
2023-03-19T17:23:23.555Z,11.90
2023-03-19T17:25:51.303Z,13.15
2023-03-19T17:28:17.953Z,13.77
2023-03-19T17:30:45.744Z,14.18
2023-03-19T17:33:24.382Z,14.90
2023-03-19T17:35:53.582Z,13.32
2023-03-19T17:38:22.089Z,12.48
2023-03-19T17:40:48.694Z,10.90
2023-03-19T17:43:15.480Z,9.68
2023-03-19T17:45:46.056Z,11.07
2023-03-19T17:48:23.623Z,14.10
2023-03-19T17:50:51.029Z,11.65
2023-03-19T17:53:18.003Z,13.50
2023-03-19T17:55:45.919Z,13.73
2023-03-19T17:58:18.770Z,11.05
2023-03-19T18:00:47.790Z,9.27
2023-03-19T18:03:18.022Z,9.80
2023-03-19T18:05:44.691Z,8.30
2023-03-19T18:08:18.376Z,8.82
2023-03-19T18:10:45.207Z,11.57
2023-03-19T18:13:12.048Z,9.73
2023-03-19T18:15:40.496Z,16.85
2023-03-19T18:18:15.040Z,13.38
2023-03-19T18:20:41.866Z,12.25
2023-03-19T18:23:11.884Z,20.55
2023-03-19T18:25:38.820Z,11.38
2023-03-19T18:28:05.548Z,8.15
2023-03-19T18:30:35.406Z,10.80
2023-03-19T18:33:05.307Z,6.78
2023-03-19T18:35:36.461Z,11.70
2023-03-19T18:38:03.703Z,10.95
2023-03-19T18:40:32.083Z,12.15
2023-03-19T18:42:59.068Z,7.85
2023-03-19T18:45:29.881Z,8.93
2023-03-19T18:47:56.672Z,12.45
2023-03-19T18:50:28.057Z,16.50
2023-03-19T18:52:55.701Z,10.18
2023-03-19T18:55:28.666Z,9.63
2023-03-19T18:57:58.760Z,12.57
2023-03-19T19:00:31.061Z,12.50
2023-03-19T19:02:58.449Z,11.40
2023-03-19T19:05:30.187Z,11.27
2023-03-19T19:07:59.638Z,15.52
2023-03-19T19:10:31.456Z,15.68
2023-03-19T19:12:58.267Z,13.75
2023-03-19T19:15:29.746Z,14.73
2023-03-19T19:17:57.210Z,14.45
2023-03-19T19:20:26.572Z,16.58
2023-03-19T19:22:53.778Z,16.15
2023-03-19T19:25:24.793Z,14.10
2023-03-19T19:28:04.981Z,15.80
2023-03-19T19:30:32.430Z,16.50
2023-03-19T19:32:59.377Z,14.27
2023-03-19T19:35:27.887Z,16.60
2023-03-19T19:37:54.816Z,13.85
2023-03-19T19:40:26.589Z,11.43
2023-03-19T19:42:53.794Z,13.43
2023-03-19T19:45:32.583Z,12.05
2023-03-19T19:47:59.798Z,11.73
2023-03-19T19:50:27.252Z,13.77
2023-03-19T19:52:55.806Z,10.18
2023-03-19T19:55:25.389Z,12.20
2023-03-19T19:57:55.740Z,12.85
2023-03-19T20:00:26.479Z,11.60
2023-03-19T20:02:54.308Z,10.73
2023-03-19T20:05:23.662Z,13.18
2023-03-19T20:07:52.128Z,10.75
2023-03-19T20:10:23.094Z,13.25
2023-03-19T20:12:54.026Z,9.93
2023-03-19T20:15:25.961Z,9.07
2023-03-19T20:17:53.876Z,11.32
2023-03-19T20:20:23.100Z,14.95
2023-03-19T20:22:50.040Z,14.13
2023-03-19T20:25:19.749Z,11.90
2023-03-19T20:27:49.369Z,9.15
2023-03-19T20:30:22.211Z,14.25
2023-03-19T20:32:50.472Z,14.87
2023-03-19T20:35:22.726Z,13.27
2023-03-19T20:37:54.177Z,9.63
2023-03-19T20:40:22.856Z,16.55
2023-03-19T20:42:51.277Z,12.43
2023-03-19T20:45:30.413Z,12.02
2023-03-19T20:47:57.869Z,5.03
2023-03-19T20:50:27.435Z,8.27
2023-03-19T20:52:56.376Z,13.30
2023-03-19T20:55:26.438Z,11.90
2023-03-19T20:57:53.015Z,11.75
2023-03-19T21:00:25.025Z,14.35
2023-03-19T21:02:53.715Z,79.82
2023-03-19T21:05:21.811Z,65.30
2023-03-19T21:07:51.006Z,79.85
2023-03-19T21:10:21.140Z,49.10
2023-03-19T21:12:47.694Z,21.40
2023-03-19T21:15:14.524Z,22.48
2023-03-19T21:17:41.709Z,17.65
2023-03-19T21:20:16.896Z,14.87
2023-03-19T21:22:46.956Z,9.75
2023-03-19T21:25:20.198Z,19.35
2023-03-19T21:27:51.576Z,18.70
2023-03-19T21:30:19.467Z,13.57
2023-03-19T21:32:47.598Z,13.38
2023-03-19T21:35:19.433Z,21.85
2023-03-19T21:37:47.504Z,16.17
2023-03-19T21:40:17.423Z,8.80
2023-03-19T21:42:47.578Z,11.60
2023-03-19T21:45:23.340Z,11.48
2023-03-19T21:47:50.163Z,31.40
2023-03-19T21:50:19.522Z,65.80
2023-03-19T21:52:58.831Z,140.25
2023-03-19T21:55:27.557Z,117.35
2023-03-19T21:57:56.856Z,130.85
2023-03-19T22:00:23.782Z,53.38
2023-03-19T22:02:51.289Z,87.70
2023-03-19T22:05:22.422Z,79.35
2023-03-19T22:07:49.755Z,32.47
2023-03-19T22:10:18.295Z,33.58
2023-03-19T22:12:45.706Z,23.55
2023-03-19T22:15:24.898Z,29.50
2023-03-19T22:17:51.719Z,17.15
2023-03-19T22:20:21.801Z,14.65
2023-03-19T22:22:50.422Z,12.40
2023-03-19T22:25:18.735Z,15.77
2023-03-19T22:27:47.584Z,28.58
2023-03-19T22:30:35.758Z,25.95
2023-03-19T22:33:12.907Z,29.87
2023-03-19T22:35:39.977Z,23.67
2023-03-19T22:38:06.741Z,18.10
2023-03-19T22:40:34.144Z,14.45
2023-03-19T22:43:01.140Z,13.88
2023-03-19T22:45:31.505Z,12.05
2023-03-19T22:47:59.767Z,16.45
2023-03-19T22:50:28.906Z,18.73
2023-03-19T22:52:57.143Z,14.13
2023-03-19T22:55:24.066Z,16.77
2023-03-19T22:57:50.622Z,16.30
2023-03-19T23:00:23.003Z,14.23
2023-03-19T23:02:56.967Z,17.42
2023-03-19T23:05:32.692Z,13.65
2023-03-19T23:08:00.503Z,11.00
2023-03-19T23:10:30.132Z,15.32
2023-03-19T23:12:56.638Z,11.65
2023-03-19T23:15:26.287Z,16.75
2023-03-19T23:17:57.393Z,12.98
2023-03-19T23:20:26.597Z,9.23
2023-03-19T23:22:54.184Z,14.35
2023-03-19T23:25:26.588Z,13.85
2023-03-19T23:27:58.639Z,13.95
2023-03-19T23:30:29.585Z,9.05
2023-03-19T23:32:59.273Z,16.35
2023-03-19T23:35:28.893Z,14.40
2023-03-19T23:37:57.013Z,17.62
2023-03-19T23:40:29.403Z,14.07
2023-03-19T23:42:57.872Z,14.05
2023-03-19T23:45:30.777Z,17.15
2023-03-19T23:47:59.642Z,16.20
2023-03-19T23:50:26.420Z,13.25
2023-03-19T23:52:53.015Z,19.80
2023-03-19T23:55:20.260Z,18.45
2023-03-19T23:57:47.119Z,16.17
